createdAt,value
2019-03-09T00:06:35.773Z,5.13
2019-03-09T00:21:49.480Z,4.23
2019-03-09T00:28:21.797Z,5.10
2019-03-09T00:32:03.721Z,4.27
2019-03-09T00:39:12.398Z,4.13
2019-03-09T00:58:14.099Z,3.50
2019-03-09T01:01:45.448Z,4.13
2019-03-09T07:13:00.289Z,3.27
2019-03-09T07:19:34.704Z,3.80
2019-03-09T09:38:45.469Z,4.53
2019-03-09T09:41:24.270Z,4.70
2019-03-09T09:44:10.428Z,4.73
2019-03-09T09:46:57.565Z,4.50
2019-03-09T09:50:11.148Z,5.03
2019-03-09T09:52:41.941Z,4.33
2019-03-09T09:55:32.048Z,5.40
2019-03-09T09:58:52.975Z,5.07
2019-03-09T10:01:23.284Z,4.90
2019-03-09T10:04:11.362Z,4.93
2019-03-09T10:06:41.304Z,5.77
2019-03-09T10:09:10.758Z,4.47
2019-03-09T10:11:43.059Z,5.67
2019-03-09T10:14:51.037Z,6.60
2019-03-09T10:17:27.402Z,5.53
2019-03-09T10:20:08.709Z,5.13
2019-03-09T10:22:39.272Z,5.20
2019-03-09T10:25:12.014Z,7.73
2019-03-09T10:27:56.453Z,6.13
2019-03-09T10:30:26.669Z,5.40
2019-03-09T10:32:58.162Z,5.53
2019-03-09T10:35:27.958Z,6.13
2019-03-09T10:38:02.353Z,6.10
2019-03-09T10:40:33.354Z,6.83
2019-03-09T10:43:03.223Z,6.87
2019-03-09T10:45:32.917Z,6.63
2019-03-09T10:48:05.152Z,6.20
2019-03-09T10:50:36.110Z,6.77
2019-03-09T10:53:10.138Z,6.53
2019-03-09T10:55:39.592Z,6.60
2019-03-09T10:58:09.562Z,5.13
2019-03-09T11:00:39.030Z,5.97
2019-03-09T11:03:11.875Z,5.23
2019-03-09T11:05:42.904Z,6.40
2019-03-09T11:08:12.417Z,5.90
2019-03-09T11:10:41.835Z,6.40
2019-03-09T11:13:11.251Z,6.07
2019-03-09T11:15:40.805Z,6.00
2019-03-09T11:18:13.194Z,5.93
2019-03-09T11:20:47.671Z,6.17
2019-03-09T11:23:17.056Z,5.87
2019-03-09T11:25:49.739Z,5.47
2019-03-09T11:28:29.998Z,6.47
2019-03-09T11:30:54.141Z,7.80
2019-03-09T11:33:23.787Z,6.10
2019-03-09T11:35:57.689Z,5.90
2019-03-09T11:38:30.376Z,5.87
2019-03-09T11:41:00.880Z,6.03
2019-03-09T11:43:40.951Z,5.97
2019-03-09T11:46:15.622Z,6.53
2019-03-09T11:48:46.450Z,6.60
2019-03-09T11:51:16.215Z,7.50
2019-03-09T11:53:50.616Z,7.00
2019-03-09T11:56:24.133Z,7.77
2019-03-09T11:58:57.676Z,8.57
2019-03-09T12:01:38.834Z,7.87
2019-03-09T12:04:08.341Z,8.10
2019-03-09T12:06:37.700Z,6.03
2019-03-09T12:09:07.883Z,6.80
2019-03-09T12:11:42.015Z,6.17
2019-03-09T12:14:14.723Z,5.50
2019-03-09T12:16:44.701Z,6.97
2019-03-09T12:19:37.092Z,6.97
2019-03-09T12:22:06.542Z,6.80
2019-03-09T12:24:45.034Z,7.00
2019-03-09T13:03:33.347Z,9.00
2019-03-09T13:06:02.822Z,8.03
2019-03-09T13:08:55.339Z,7.77
2019-03-09T13:11:26.882Z,8.93
2019-03-09T13:13:57.905Z,6.97
2019-03-09T13:16:40.084Z,8.90
2019-03-09T13:22:33.361Z,10.47
2019-03-09T13:25:03.881Z,8.10
2019-03-09T13:27:33.318Z,10.10
2019-03-09T13:30:03.051Z,8.87
2019-03-09T13:32:35.106Z,8.97
2019-03-09T13:35:05.040Z,8.60
2019-03-09T13:37:34.357Z,8.30
2019-03-09T13:40:03.798Z,11.10
2019-03-09T13:42:34.280Z,8.70
2019-03-09T13:45:05.357Z,7.97
2019-03-09T13:47:35.356Z,9.50
2019-03-09T13:50:12.988Z,8.17
2019-03-09T13:52:44.655Z,7.07
2019-03-09T13:55:15.149Z,10.03
2019-03-09T13:57:44.799Z,8.47
2019-03-09T14:00:20.749Z,7.37
2019-03-09T14:03:00.027Z,8.67
2019-03-09T14:05:56.439Z,8.73
2019-03-09T14:08:41.987Z,10.20
2019-03-09T14:11:02.726Z,8.67
2019-03-09T14:13:46.906Z,9.00
2019-03-09T14:17:24.702Z,7.43
2019-03-09T14:19:58.302Z,9.23
2019-03-09T14:22:52.487Z,7.63
2019-03-09T14:25:26.390Z,7.47
2019-03-09T14:28:04.005Z,6.60
2019-03-09T14:30:35.899Z,4.30
2019-03-09T14:33:05.500Z,2.87
2019-03-09T14:35:38.527Z,2.13
2019-03-09T14:38:08.503Z,2.43
2019-03-09T14:40:38.314Z,2.60
2019-03-09T14:43:10.215Z,1.83
2019-03-09T14:45:39.944Z,1.60
2019-03-09T14:48:09.358Z,2.07
2019-03-09T14:50:38.701Z,2.37
2019-03-09T14:53:08.322Z,2.40
2019-03-09T14:55:37.725Z,2.47
2019-03-09T14:58:08.796Z,2.73
2019-03-09T15:00:38.117Z,2.33
2019-03-09T15:03:07.540Z,3.13
2019-03-09T15:05:39.347Z,2.70
2019-03-09T15:08:08.722Z,2.37
2019-03-09T15:10:44.736Z,2.87
2019-03-09T15:13:25.758Z,2.60
2019-03-09T15:16:03.080Z,2.20
2019-03-09T15:18:32.791Z,3.23
2019-03-09T15:21:02.146Z,2.73
2019-03-09T15:23:34.350Z,3.00
2019-03-09T15:26:04.200Z,2.93
2019-03-09T15:28:35.568Z,3.43
2019-03-09T15:31:07.843Z,3.53
2019-03-09T15:33:42.652Z,3.77
2019-03-09T15:36:14.510Z,3.63
2019-03-09T15:38:47.154Z,4.53
2019-03-09T15:41:22.061Z,3.97
2019-03-09T15:43:51.546Z,3.23
2019-03-09T15:46:25.046Z,4.77
2019-03-09T15:48:56.394Z,5.07
2019-03-09T15:51:26.824Z,4.30
2019-03-09T15:54:03.916Z,4.67
2019-03-09T15:56:55.902Z,4.47
2019-03-09T15:59:34.355Z,4.30
2019-03-09T16:02:09.963Z,2.93
2019-03-09T16:04:44.739Z,2.70
2019-03-09T16:07:18.743Z,2.33
2019-03-09T16:09:54.351Z,4.57
2019-03-09T16:12:25.903Z,3.30
2019-03-09T16:14:59.231Z,2.23
2019-03-09T16:17:35.975Z,2.57
2019-03-09T16:20:06.146Z,2.73
2019-03-09T16:22:38.414Z,2.67
2019-03-09T16:25:11.422Z,2.97
2019-03-09T16:27:41.238Z,2.83
2019-03-09T16:30:14.510Z,2.70
2019-03-09T16:32:44.041Z,3.20
2019-03-09T16:35:16.080Z,3.23
2019-03-09T16:37:49.122Z,1.90
2019-03-09T16:40:18.964Z,2.77
2019-03-09T16:42:49.917Z,2.60
2019-03-09T16:45:19.246Z,2.30
2019-03-09T16:47:48.783Z,3.20
2019-03-09T16:50:18.604Z,2.10
2019-03-09T16:52:48.543Z,3.27
2019-03-09T16:55:18.974Z,3.07
2019-03-09T16:57:48.540Z,2.87
2019-03-09T17:00:18.798Z,2.00
2019-03-09T17:02:48.317Z,4.00
2019-03-09T17:05:20.454Z,3.23
2019-03-09T17:07:53.199Z,3.17
2019-03-09T17:10:22.909Z,2.97
2019-03-09T17:12:54.020Z,3.27
2019-03-09T17:15:23.470Z,3.83
2019-03-09T17:18:03.182Z,2.70
2019-03-09T17:20:52.669Z,3.87
2019-03-09T17:23:45.323Z,3.43
2019-03-09T17:26:21.206Z,2.90
2019-03-09T17:29:40.059Z,3.20
2019-03-09T17:32:09.667Z,4.00
2019-03-09T17:35:01.276Z,3.30
2019-03-09T18:22:30.491Z,3.07
2019-03-09T18:25:00.446Z,2.63
2019-03-09T18:27:44.337Z,2.27
2019-03-09T18:31:25.830Z,2.23
2019-03-09T18:37:20.029Z,1.90
2019-03-09T18:40:37.574Z,3.03
2019-03-09T18:47:01.204Z,3.23
2019-03-09T18:50:09.114Z,2.13
2019-03-09T18:52:55.414Z,3.47
2019-03-09T18:55:28.452Z,2.70
2019-03-09T18:58:01.569Z,3.20
2019-03-09T19:00:38.673Z,2.30
2019-03-09T19:03:09.746Z,2.60
2019-03-09T19:05:39.221Z,3.50
2019-03-09T19:08:08.994Z,4.30
2019-03-09T19:10:40.319Z,2.77
2019-03-09T19:13:09.742Z,2.73
2019-03-09T19:15:45.600Z,4.33
2019-03-09T19:18:15.037Z,3.57
2019-03-09T19:20:52.536Z,2.80
2019-03-09T19:23:21.969Z,2.30
2019-03-09T19:25:54.644Z,2.77
2019-03-09T19:28:24.019Z,3.03
2019-03-09T19:30:53.832Z,3.63
2019-03-09T19:33:24.312Z,2.80
2019-03-09T19:35:53.722Z,3.23
2019-03-09T19:38:23.453Z,3.30
2019-03-09T19:40:52.878Z,2.63
2019-03-09T19:43:22.488Z,3.30
2019-03-09T19:45:51.945Z,4.07
2019-03-09T19:48:21.314Z,2.83
2019-03-09T19:50:55.588Z,3.23
2019-03-09T19:53:24.434Z,2.90
2019-03-09T19:55:53.840Z,3.40
2019-03-09T19:58:23.258Z,3.07
2019-03-09T20:00:52.679Z,3.50
2019-03-09T20:03:23.750Z,2.63
2019-03-09T20:05:53.380Z,2.73
2019-03-09T20:08:22.986Z,2.50
2019-03-09T20:11:01.372Z,3.30
2019-03-09T20:13:33.355Z,2.50
2019-03-09T20:16:03.812Z,2.70
2019-03-09T20:18:36.740Z,2.87
2019-03-09T20:21:06.380Z,2.90
2019-03-09T20:23:39.846Z,3.20
2019-03-09T20:26:15.381Z,4.10
2019-03-09T20:29:14.858Z,4.00
2019-03-09T20:32:19.398Z,3.53
2019-03-09T20:34:48.993Z,3.93
2019-03-09T20:37:22.944Z,3.13
2019-03-09T20:40:04.352Z,3.50
2019-03-09T20:42:36.058Z,3.53
2019-03-09T20:45:06.958Z,3.50
2019-03-09T20:47:36.503Z,3.47
2019-03-09T20:50:06.334Z,3.93
2019-03-09T20:52:38.458Z,3.17
2019-03-09T20:55:08.404Z,4.03
2019-03-09T20:57:48.011Z,3.07
2019-03-09T21:00:22.491Z,3.97
2019-03-09T21:02:55.050Z,4.47
2019-03-09T21:06:00.770Z,4.80
2019-03-09T21:08:40.918Z,2.67
2019-03-09T21:11:10.527Z,3.47
2019-03-09T21:13:40.117Z,5.03
2019-03-09T21:16:10.263Z,3.33
2019-03-09T21:18:40.478Z,3.50
2019-03-09T21:21:11.575Z,4.10
2019-03-09T21:23:51.095Z,3.67
2019-03-09T21:27:55.836Z,2.80
2019-03-09T21:30:28.170Z,4.67
2019-03-09T21:33:03.181Z,3.10
2019-03-09T21:35:35.879Z,2.97
2019-03-09T21:38:08.406Z,3.40
2019-03-09T21:40:39.065Z,3.07
2019-03-09T21:43:17.391Z,3.57
2019-03-09T21:46:06.257Z,4.00
2019-03-09T21:48:41.040Z,3.30
2019-03-09T21:51:13.618Z,3.33
2019-03-09T21:53:45.402Z,3.47
2019-03-09T21:56:17.567Z,3.57
2019-03-09T21:59:01.284Z,3.43
2019-03-09T22:01:30.730Z,2.90
2019-03-09T22:04:01.446Z,3.70
2019-03-09T22:06:30.911Z,2.90
2019-03-09T22:09:05.440Z,4.63
2019-03-09T22:11:44.227Z,3.10
2019-03-09T22:14:27.219Z,2.40
2019-03-09T22:16:57.156Z,2.67
2019-03-09T22:19:47.353Z,4.13
2019-03-09T22:22:23.992Z,3.10
2019-03-09T22:24:56.264Z,2.90
2019-03-09T22:27:26.898Z,2.53
2019-03-09T22:29:58.050Z,2.80
2019-03-09T22:32:29.227Z,2.83
2019-03-09T22:35:00.344Z,2.80
2019-03-09T22:37:34.010Z,3.13
2019-03-09T22:40:07.979Z,3.03
2019-03-09T22:42:40.161Z,3.97
2019-03-09T22:45:26.641Z,3.27
2019-03-09T22:47:58.898Z,3.57
2019-03-09T22:50:31.163Z,4.63
2019-03-09T22:53:11.730Z,3.17
2019-03-09T22:55:44.241Z,3.93
2019-03-09T22:58:13.604Z,2.87
2019-03-09T23:00:45.500Z,3.07
2019-03-09T23:03:17.255Z,3.33
2019-03-09T23:05:59.946Z,2.93
2019-03-09T23:08:39.961Z,3.37
2019-03-09T23:11:20.013Z,3.57
2019-03-09T23:14:33.608Z,3.47
2019-03-09T23:16:45.109Z,4.03
2019-03-09T23:19:24.740Z,2.67
2019-03-09T23:21:55.957Z,3.63
2019-03-09T23:24:27.191Z,3.87
2019-03-09T23:26:56.610Z,3.30
2019-03-09T23:29:31.182Z,4.23
2019-03-09T23:32:00.688Z,3.53
2019-03-09T23:34:30.280Z,3.10
2019-03-09T23:37:19.088Z,3.23
2019-03-09T23:39:59.494Z,3.33
2019-03-09T23:42:30.916Z,3.10
2019-03-09T23:45:00.406Z,2.87
2019-03-09T23:47:32.781Z,3.23
2019-03-09T23:50:02.293Z,3.63
2019-03-09T23:52:31.916Z,3.37
2019-03-09T23:55:02.587Z,3.20
2019-03-09T23:57:33.164Z,3.63
